createdAt,value
2019-04-21T00:00:54.172Z,1.50
2019-04-21T00:03:25.796Z,1.50
2019-04-21T00:06:09.201Z,1.32
2019-04-21T00:08:41.799Z,1.40
2019-04-21T00:13:32.654Z,2.00
2019-04-21T00:15:57.332Z,1.92
2019-04-21T00:18:23.404Z,2.45
2019-04-21T00:20:56.337Z,2.50
2019-04-21T00:23:42.439Z,2.02
2019-04-21T00:26:04.036Z,2.30
2019-04-21T00:29:09.413Z,1.87
2019-04-21T00:31:28.620Z,2.52
2019-04-21T00:33:45.035Z,2.30
2019-04-21T00:36:20.214Z,2.58
2019-04-21T00:39:17.107Z,2.25
2019-04-21T00:41:36.693Z,2.17
2019-04-21T00:43:57.220Z,2.10
2019-04-21T00:46:32.239Z,1.85
2019-04-21T00:49:02.002Z,2.33
2019-04-21T00:51:46.629Z,1.40
2019-04-21T00:54:13.113Z,1.90
2019-04-21T00:56:41.327Z,1.72
2019-04-21T00:59:14.554Z,1.60
2019-04-21T01:01:38.264Z,1.98
2019-04-21T01:04:14.280Z,1.77
2019-04-21T01:06:42.707Z,1.70
2019-04-21T01:09:09.508Z,2.33
2019-04-21T01:11:36.718Z,1.80
2019-04-21T01:14:12.165Z,1.72
2019-04-21T01:16:39.250Z,1.77
2019-04-21T01:19:05.059Z,1.93
2019-04-21T01:21:18.086Z,1.77
2019-04-21T01:23:46.493Z,1.90
2019-04-21T01:26:30.765Z,2.13
2019-04-21T01:29:02.787Z,1.90
2019-04-21T01:31:34.881Z,1.80
2019-04-21T01:34:08.743Z,1.77
2019-04-21T01:36:37.054Z,1.80
2019-04-21T01:39:08.069Z,1.60
2019-04-21T01:41:43.073Z,1.80
2019-04-21T01:44:06.247Z,2.00
2019-04-21T01:46:33.911Z,1.90
2019-04-21T01:49:02.165Z,2.03
2019-04-21T01:51:46.803Z,2.00
2019-04-21T01:54:18.445Z,1.77
2019-04-21T01:57:05.577Z,1.67
2019-04-21T01:59:27.014Z,1.30
2019-04-21T02:02:05.082Z,1.60
2019-04-21T02:04:50.340Z,1.47
2019-04-21T02:07:03.263Z,2.30
2019-04-21T02:09:38.283Z,1.50
2019-04-21T02:12:08.821Z,1.80
2019-04-21T02:14:41.218Z,1.20
2019-04-21T02:17:09.886Z,1.57
2019-04-21T02:19:33.345Z,1.27
2019-04-21T02:21:59.487Z,1.20
2019-04-21T02:24:42.027Z,1.30
2019-04-21T02:27:08.197Z,1.27
2019-04-21T02:29:41.287Z,1.57
2019-04-21T02:32:15.871Z,1.50
2019-04-21T02:34:54.867Z,1.40
2019-04-21T02:39:57.289Z,1.50
2019-04-21T02:42:22.288Z,1.67
2019-04-21T02:47:27.541Z,1.47
2019-04-21T02:52:31.402Z,1.30
2019-04-21T02:57:18.419Z,1.40
2019-04-21T03:00:00.047Z,1.60
2019-04-21T03:02:45.433Z,1.30
2019-04-21T03:05:24.352Z,1.70
2019-04-21T03:07:50.427Z,1.60
2019-04-21T03:10:18.279Z,1.57
2019-04-21T03:17:54.871Z,1.63
2019-04-21T03:22:42.161Z,1.53
2019-04-21T03:25:25.342Z,1.90
2019-04-21T03:30:26.027Z,2.20
2019-04-21T03:35:54.421Z,2.30
2019-04-21T03:37:49.725Z,2.30
2019-04-21T03:40:27.329Z,2.43
2019-04-21T03:45:27.163Z,2.10
2019-04-21T03:47:43.534Z,1.90
2019-04-21T03:50:20.453Z,1.47
2019-04-21T03:55:51.462Z,1.20
2019-04-21T04:00:58.576Z,1.83
2019-04-21T04:03:49.213Z,1.33
2019-04-21T04:05:59.614Z,1.73
2019-04-21T04:08:44.818Z,1.70
2019-04-21T04:11:04.705Z,1.40
2019-04-21T04:13:37.622Z,1.80
2019-04-21T04:18:39.329Z,1.97
2019-04-21T04:21:07.559Z,1.77
2019-04-21T04:23:35.569Z,1.60
2019-04-21T04:25:57.754Z,1.63
2019-04-21T04:28:47.933Z,1.60
2019-04-21T04:31:06.489Z,1.73
2019-04-21T04:33:43.662Z,2.37
2019-04-21T04:38:33.898Z,1.90
2019-04-21T04:41:14.481Z,2.20
2019-04-21T04:43:37.081Z,1.80
2019-04-21T04:48:39.323Z,1.93
2019-04-21T04:53:45.898Z,1.57
2019-04-21T04:59:18.319Z,1.80
2019-04-21T05:14:03.006Z,1.60
2019-04-21T05:16:41.147Z,1.90
2019-04-21T05:19:04.179Z,1.60
2019-04-21T05:23:48.464Z,1.53
2019-04-21T05:26:09.903Z,1.63
2019-04-21T05:28:42.078Z,1.70
2019-04-21T05:31:42.663Z,1.70
2019-04-21T05:34:12.092Z,1.90
2019-04-21T05:36:44.520Z,1.67
2019-04-21T05:39:21.026Z,2.00
2019-04-21T05:41:41.407Z,1.97
2019-04-21T05:44:32.983Z,1.70
2019-04-21T05:46:56.446Z,2.13
2019-04-21T05:49:38.283Z,1.73
2019-04-21T05:52:03.693Z,2.27
2019-04-21T05:54:44.155Z,1.73
2019-04-21T05:57:11.843Z,2.10
2019-04-21T05:59:47.829Z,2.00
2019-04-21T06:07:20.131Z,2.15
2019-04-21T06:09:52.382Z,2.10
2019-04-21T06:12:16.132Z,1.95
2019-04-21T06:14:49.443Z,2.00
2019-04-21T06:17:18.827Z,1.90
2019-04-21T06:22:14.903Z,2.35
2019-04-21T06:24:58.425Z,2.05
2019-04-21T06:27:19.456Z,2.42
2019-04-21T06:29:46.745Z,2.17
2019-04-21T06:32:30.257Z,1.98
2019-04-21T06:34:59.089Z,2.40
2019-04-21T06:37:34.838Z,2.20
2019-04-21T06:40:03.256Z,2.12
2019-04-21T06:42:14.718Z,2.02
2019-04-21T06:44:53.772Z,2.08
2019-04-21T06:47:26.581Z,1.95
2019-04-21T06:49:44.407Z,2.33
2019-04-21T06:54:46.924Z,1.77
2019-04-21T06:57:16.894Z,2.27
2019-04-21T06:59:43.115Z,2.00
2019-04-21T07:02:36.209Z,2.08
2019-04-21T07:04:50.167Z,1.80
2019-04-21T07:07:18.260Z,1.87
2019-04-21T07:09:51.317Z,2.00
2019-04-21T07:12:16.606Z,1.90
2019-04-21T07:14:49.492Z,2.20
2019-04-21T07:17:17.917Z,1.90
2019-04-21T07:19:48.435Z,2.22
2019-04-21T07:22:19.397Z,1.95
2019-04-21T07:24:54.072Z,1.80
2019-04-21T07:27:16.275Z,2.15
2019-04-21T07:32:14.053Z,1.95
2019-04-21T07:34:46.184Z,1.50
2019-04-21T07:37:11.987Z,1.80
2019-04-21T07:39:46.602Z,2.00
2019-04-21T07:42:13.740Z,1.70
2019-04-21T07:44:42.344Z,1.72
2019-04-21T07:47:17.121Z,1.57
2019-04-21T07:49:53.106Z,1.98
2019-04-21T07:52:28.274Z,1.62
2019-04-21T07:55:05.924Z,1.62
2019-04-21T07:57:18.786Z,1.72
2019-04-21T08:00:12.496Z,1.95
2019-04-21T08:02:26.938Z,2.55
2019-04-21T08:05:00.502Z,1.50
2019-04-21T08:07:37.605Z,1.70
2019-04-21T08:09:54.028Z,1.67
2019-04-21T08:12:20.093Z,1.57
2019-04-21T08:15:01.282Z,1.52
2019-04-21T08:17:24.626Z,1.50
2019-04-21T08:19:53.655Z,1.27
2019-04-21T08:22:29.166Z,1.52
2019-04-21T08:24:57.763Z,1.70
2019-04-21T08:27:25.701Z,1.62
2019-04-21T08:29:57.982Z,1.92
2019-04-21T08:32:36.236Z,1.85
2019-04-21T08:35:07.406Z,1.40
2019-04-21T08:37:24.851Z,1.47
2019-04-21T08:40:05.150Z,1.65
2019-04-21T08:42:45.224Z,1.52
2019-04-21T08:45:21.883Z,1.50
2019-04-21T08:47:50.278Z,1.67
2019-04-21T08:50:19.599Z,1.25
2019-04-21T08:52:49.326Z,1.37
2019-04-21T08:55:42.884Z,1.42
2019-04-21T08:58:30.846Z,1.62
2019-04-21T09:01:20.540Z,2.47
2019-04-21T09:03:56.664Z,1.65
2019-04-21T09:06:40.259Z,1.40
2019-04-21T09:08:55.425Z,1.37
2019-04-21T09:11:24.057Z,1.22
2019-04-21T09:13:58.511Z,1.70
2019-04-21T09:16:20.636Z,1.30
2019-04-21T09:18:48.666Z,1.60
2019-04-21T09:21:26.916Z,1.57
2019-04-21T09:23:53.943Z,1.32
2019-04-21T09:26:26.226Z,1.10
2019-04-21T09:28:48.246Z,1.17
2019-04-21T09:31:07.159Z,1.10
2019-04-21T09:33:41.268Z,1.47
2019-04-21T09:36:11.435Z,1.35
2019-04-21T09:38:41.531Z,1.10
2019-04-21T09:41:12.526Z,1.10
2019-04-21T09:43:43.867Z,1.55
2019-04-21T09:46:08.333Z,1.22
2019-04-21T09:48:46.593Z,1.80
2019-04-21T09:51:07.108Z,1.20
2019-04-21T09:53:38.766Z,1.45
2019-04-21T09:56:11.757Z,1.30
2019-04-21T09:58:40.759Z,1.25
2019-04-21T10:01:15.652Z,1.32
2019-04-21T10:03:44.799Z,1.15
2019-04-21T10:06:06.781Z,1.30
2019-04-21T10:08:36.380Z,1.30
2019-04-21T10:11:05.367Z,1.10
2019-04-21T10:13:34.076Z,1.30
2019-04-21T10:16:21.586Z,1.20
2019-04-21T10:18:50.378Z,1.20
2019-04-21T10:21:19.792Z,1.40
2019-04-21T10:23:48.425Z,1.32
2019-04-21T10:26:16.855Z,1.50
2019-04-21T10:29:09.365Z,1.52
2019-04-21T10:31:35.039Z,1.40
2019-04-21T10:34:05.183Z,1.50
2019-04-21T10:36:35.022Z,1.45
2019-04-21T10:39:06.028Z,1.52
2019-04-21T10:41:35.127Z,1.45
2019-04-21T10:44:04.978Z,1.35
2019-04-21T10:46:34.880Z,2.05
2019-04-21T10:49:04.426Z,1.70
2019-04-21T10:51:32.897Z,1.57
2019-04-21T10:54:02.008Z,1.50
2019-04-21T10:56:36.281Z,1.80
2019-04-21T10:59:00.396Z,1.40
2019-04-21T11:01:29.382Z,1.35
2019-04-21T11:04:02.781Z,1.30
2019-04-21T11:06:31.048Z,1.87
2019-04-21T11:09:01.491Z,1.35
2019-04-21T11:11:30.160Z,1.60
2019-04-21T11:13:58.909Z,1.50
2019-04-21T11:16:29.015Z,1.70
2019-04-21T11:18:58.057Z,1.50
2019-04-21T11:21:27.134Z,1.30
2019-04-21T11:23:56.547Z,1.40
2019-04-21T11:26:25.188Z,1.70
2019-04-21T11:28:54.805Z,1.45
2019-04-21T11:31:23.347Z,1.85
2019-04-21T11:33:51.761Z,1.60
2019-04-21T11:36:21.490Z,1.57
2019-04-21T11:39:08.387Z,1.65
2019-04-21T11:41:25.652Z,2.33
2019-04-21T11:43:55.019Z,1.72
2019-04-21T11:46:24.480Z,1.37
2019-04-21T11:48:54.604Z,1.40
2019-04-21T11:51:23.338Z,1.60
2019-04-21T11:53:52.836Z,1.60
2019-04-21T11:56:22.978Z,1.20
2019-04-21T11:58:51.936Z,1.37
2019-04-21T12:01:21.319Z,1.50
2019-04-21T12:03:49.791Z,1.32
2019-04-21T12:06:19.341Z,1.27
2019-04-21T12:08:50.920Z,1.32
2019-04-21T12:11:17.851Z,1.27
2019-04-21T12:13:46.266Z,1.50
2019-04-21T12:16:15.041Z,1.30
2019-04-21T12:18:45.022Z,1.42
2019-04-21T12:21:13.737Z,1.22
2019-04-21T12:23:42.753Z,1.20
2019-04-21T12:26:11.408Z,1.47
2019-04-21T12:28:39.895Z,0.98
2019-04-21T12:31:09.937Z,1.27
2019-04-21T12:33:43.644Z,1.20
2019-04-21T12:36:13.667Z,1.37
2019-04-21T12:38:48.864Z,1.50
2019-04-21T12:41:12.899Z,1.37
2019-04-21T12:43:42.546Z,1.25
2019-04-21T12:46:11.993Z,1.45
2019-04-21T12:48:40.315Z,1.20
2019-04-21T12:51:10.094Z,1.20
2019-04-21T12:53:39.404Z,1.00
2019-04-21T12:56:09.382Z,0.90
2019-04-21T12:58:39.455Z,1.45
2019-04-21T13:01:09.234Z,1.47
2019-04-21T13:03:37.876Z,1.42
2019-04-21T13:06:07.517Z,1.30
2019-04-21T13:08:45.695Z,1.00
2019-04-21T13:11:08.134Z,1.30
2019-04-21T13:13:37.717Z,1.00
2019-04-21T13:16:07.349Z,1.10
2019-04-21T13:18:35.532Z,1.00
2019-04-21T13:21:05.474Z,0.95
2019-04-21T13:23:34.938Z,1.20
2019-04-21T13:26:04.932Z,1.22
2019-04-21T13:28:34.547Z,1.10
2019-04-21T13:31:04.297Z,0.82
2019-04-21T13:33:33.378Z,1.00
2019-04-21T13:36:02.891Z,0.80
2019-04-21T13:38:37.686Z,1.00
2019-04-21T13:41:22.263Z,0.80
2019-04-21T13:43:37.117Z,0.80
2019-04-21T13:46:05.897Z,1.10
2019-04-21T13:48:34.726Z,1.00
2019-04-21T13:51:04.921Z,0.80
2019-04-21T13:53:34.924Z,0.90
2019-04-21T13:56:04.726Z,0.80
2019-04-21T13:58:34.494Z,1.00
2019-04-21T14:01:03.558Z,0.98
2019-04-21T14:03:33.395Z,0.70
2019-04-21T14:06:02.531Z,0.82
2019-04-21T14:08:31.373Z,1.10
2019-04-21T14:10:59.948Z,1.07
2019-04-21T14:13:28.052Z,1.20
2019-04-21T14:15:57.841Z,0.88
2019-04-21T14:18:26.887Z,0.78
2019-04-21T14:20:55.486Z,0.95
2019-04-21T14:23:32.446Z,0.78
2019-04-21T14:25:55.485Z,0.70
2019-04-21T14:28:24.076Z,0.80
2019-04-21T14:30:52.703Z,0.80
2019-04-21T14:33:23.497Z,1.07
2019-04-21T14:35:52.653Z,0.90
2019-04-21T14:38:22.492Z,0.80
2019-04-21T14:40:52.118Z,0.70
2019-04-21T14:43:21.665Z,0.82
2019-04-21T14:45:52.730Z,1.20
2019-04-21T14:48:41.086Z,0.80
2019-04-21T14:51:16.959Z,0.80
2019-04-21T14:53:47.780Z,0.90
2019-04-21T14:56:17.473Z,1.05
2019-04-21T14:58:46.878Z,0.72
2019-04-21T15:01:15.773Z,1.22
2019-04-21T15:03:45.609Z,1.20
2019-04-21T15:06:14.115Z,1.52
2019-04-21T15:08:42.937Z,1.22
2019-04-21T15:11:11.789Z,1.32
2019-04-21T15:13:41.681Z,1.27
2019-04-21T15:16:11.043Z,1.20
2019-04-21T15:18:40.914Z,1.05
2019-04-21T15:21:09.564Z,1.00
2019-04-21T15:23:38.299Z,0.90
2019-04-21T15:26:08.156Z,1.32
2019-04-21T15:28:37.859Z,0.95
2019-04-21T15:31:08.160Z,1.30
2019-04-21T15:33:36.979Z,0.90
2019-04-21T15:36:06.805Z,1.10
2019-04-21T15:38:35.950Z,1.30
2019-04-21T15:41:08.569Z,1.10
2019-04-21T15:43:36.298Z,1.37
2019-04-21T15:46:05.176Z,1.22
2019-04-21T15:48:34.844Z,1.12
2019-04-21T15:51:05.634Z,1.07
2019-04-21T15:53:35.897Z,1.20
2019-04-21T15:56:15.293Z,1.47
2019-04-21T15:58:52.675Z,1.57
2019-04-21T16:01:34.889Z,1.40
2019-04-21T16:04:04.715Z,1.20
2019-04-21T16:06:35.209Z,1.50
2019-04-21T16:09:06.432Z,1.40
2019-04-21T16:11:35.726Z,1.30
2019-04-21T16:14:05.873Z,1.27
2019-04-21T16:16:36.062Z,1.40
2019-04-21T16:19:05.968Z,1.30
2019-04-21T16:21:38.403Z,1.10
2019-04-21T16:24:04.887Z,1.30
2019-04-21T16:26:34.864Z,1.32
2019-04-21T16:29:03.227Z,1.27
2019-04-21T16:31:32.239Z,1.40
2019-04-21T16:34:01.065Z,1.37
2019-04-21T16:36:29.695Z,1.40
2019-04-21T16:38:58.089Z,1.45
2019-04-21T16:41:26.479Z,1.22
2019-04-21T16:43:55.401Z,1.20
2019-04-21T16:46:23.663Z,1.77
2019-04-21T16:48:52.065Z,1.47
2019-04-21T16:51:20.520Z,1.35
2019-04-21T16:53:50.599Z,1.40
2019-04-21T16:56:20.669Z,1.77
2019-04-21T16:58:50.684Z,1.40
2019-04-21T17:01:24.268Z,1.50
2019-04-21T17:03:54.541Z,1.35
2019-04-21T17:06:22.971Z,1.02
2019-04-21T17:09:10.777Z,1.37
2019-04-21T17:11:41.578Z,1.25
2019-04-21T17:14:30.067Z,1.20
2019-04-21T17:17:03.798Z,1.27
2019-04-21T17:19:20.241Z,1.55
2019-04-21T17:21:43.703Z,1.42
2019-04-21T17:24:12.673Z,1.20
2019-04-21T17:26:44.193Z,1.40
2019-04-21T17:29:12.373Z,1.50
2019-04-21T17:31:41.395Z,1.12
2019-04-21T17:34:16.442Z,1.30
2019-04-21T17:36:41.124Z,1.35
2019-04-21T17:39:11.161Z,1.45
2019-04-21T17:41:54.143Z,1.20
2019-04-21T17:44:10.629Z,1.40
2019-04-21T17:46:47.802Z,1.30
2019-04-21T17:49:10.759Z,1.17
2019-04-21T17:52:01.059Z,1.35
2019-04-21T17:54:37.161Z,0.93
2019-04-21T17:57:21.493Z,1.02
2019-04-21T17:59:56.334Z,1.40
2019-04-21T18:02:23.281Z,1.32
2019-04-21T18:04:49.327Z,1.17
2019-04-21T18:07:26.374Z,1.17
2019-04-21T18:10:02.847Z,1.20
2019-04-21T18:12:24.940Z,1.35
2019-04-21T18:14:51.826Z,1.30
2019-04-21T18:17:08.796Z,1.90
2019-04-21T18:19:43.205Z,1.10
2019-04-21T18:22:32.116Z,1.30
2019-04-21T18:25:03.923Z,1.20
2019-04-21T18:27:28.354Z,1.15
2019-04-21T18:30:00.018Z,1.10
2019-04-21T18:32:32.333Z,1.00
2019-04-21T18:35:05.075Z,1.12
2019-04-21T18:37:38.380Z,1.77
2019-04-21T18:40:09.613Z,1.42
2019-04-21T18:43:04.348Z,1.52
2019-04-21T18:45:54.889Z,1.40
2019-04-21T18:48:21.946Z,1.50
2019-04-21T18:50:51.314Z,1.40
2019-04-21T18:53:47.810Z,1.40
2019-04-21T18:56:06.469Z,1.65
2019-04-21T18:58:33.288Z,1.67
2019-04-21T19:01:09.329Z,1.30
2019-04-21T19:03:39.681Z,1.30
2019-04-21T19:06:10.805Z,1.40
2019-04-21T19:08:53.676Z,1.30
2019-04-21T19:11:38.842Z,1.57
2019-04-21T19:19:37.893Z,1.20
2019-04-21T19:21:33.250Z,1.52
2019-04-21T19:24:18.570Z,1.70
2019-04-21T19:26:46.347Z,1.80
2019-04-21T19:29:19.747Z,1.75
2019-04-21T19:31:46.302Z,2.17
2019-04-21T19:34:04.825Z,1.40
2019-04-21T19:36:23.664Z,1.72
2019-04-21T19:39:03.641Z,1.40
2019-04-21T19:41:38.254Z,1.50
2019-04-21T19:44:16.003Z,1.57
2019-04-21T19:46:40.958Z,1.62
2019-04-21T19:49:19.671Z,1.72
2019-04-21T19:51:37.164Z,1.47
2019-04-21T19:54:01.344Z,1.45
2019-04-21T19:56:24.114Z,1.72
2019-04-21T19:58:55.336Z,1.75
2019-04-21T20:01:23.745Z,1.50
2019-04-21T20:03:56.184Z,2.00
2019-04-21T20:06:39.029Z,1.65
2019-04-21T20:09:08.433Z,1.98
2019-04-21T20:11:38.857Z,1.57
2019-04-21T20:14:35.705Z,1.70
2019-04-21T20:16:41.297Z,1.70
2019-04-21T20:18:59.406Z,2.22
2019-04-21T20:21:23.156Z,1.85
2019-04-21T20:23:51.761Z,1.95
2019-04-21T20:26:24.676Z,2.15
2019-04-21T20:29:02.451Z,1.90
2019-04-21T20:31:37.351Z,1.80
2019-04-21T20:34:11.281Z,2.02
2019-04-21T20:36:45.731Z,1.90
2019-04-21T20:39:16.539Z,2.30
2019-04-21T20:41:55.087Z,2.25
2019-04-21T20:44:32.891Z,1.70
2019-04-21T20:46:55.472Z,2.05
2019-04-21T20:49:21.767Z,2.00
2019-04-21T20:52:08.020Z,1.90
2019-04-21T20:54:28.794Z,2.22
2019-04-21T20:56:57.827Z,1.95
2019-04-21T20:59:25.103Z,1.92
2019-04-21T21:01:57.949Z,2.35
2019-04-21T21:04:22.961Z,2.47
2019-04-21T21:07:01.659Z,1.90
2019-04-21T21:09:27.352Z,2.15
2019-04-21T21:12:11.318Z,2.33
2019-04-21T21:14:29.313Z,2.25
2019-04-21T21:17:01.351Z,2.35
2019-04-21T21:19:32.946Z,2.35
2019-04-21T21:21:54.287Z,2.25
2019-04-21T21:24:36.379Z,4.25
2019-04-21T21:26:58.170Z,2.75
2019-04-21T21:29:31.152Z,1.98
2019-04-21T21:32:06.845Z,2.25
2019-04-21T21:34:38.850Z,2.17
2019-04-21T21:37:08.656Z,2.95
2019-04-21T21:39:35.576Z,3.10
2019-04-21T21:41:49.838Z,3.45
2019-04-21T21:44:17.831Z,3.10
2019-04-21T21:46:56.949Z,2.20
2019-04-21T21:49:28.347Z,2.85
2019-04-21T21:51:55.925Z,2.15
2019-04-21T21:54:13.788Z,2.55
2019-04-21T21:56:42.669Z,2.22
2019-04-21T21:59:16.480Z,1.82
2019-04-21T22:01:45.513Z,2.27
2019-04-21T22:04:19.258Z,2.05
2019-04-21T22:06:50.410Z,2.47
2019-04-21T22:09:12.582Z,2.33
2019-04-21T22:11:42.187Z,2.25
2019-04-21T22:14:16.656Z,3.05
2019-04-21T22:16:49.456Z,3.15
2019-04-21T22:19:34.025Z,3.47
2019-04-21T22:21:59.465Z,2.70
2019-04-21T22:24:27.883Z,3.27
2019-04-21T22:26:41.112Z,2.85
2019-04-21T22:29:09.747Z,3.15
2019-04-21T22:31:40.693Z,2.75
2019-04-21T22:34:11.148Z,2.83
2019-04-21T22:36:48.699Z,3.20
2019-04-21T22:39:28.274Z,2.37
2019-04-21T22:41:43.720Z,1.87
2019-04-21T22:44:14.444Z,1.50
2019-04-21T22:46:57.323Z,1.70
2019-04-21T22:49:14.577Z,1.55
2019-04-21T22:51:47.995Z,1.67
2019-04-21T22:54:23.199Z,1.77
2019-04-21T22:56:53.001Z,1.30
2019-04-21T22:59:18.677Z,1.52
2019-04-21T23:01:49.940Z,1.72
2019-04-21T23:04:14.066Z,1.60
2019-04-21T23:06:44.317Z,1.95
2019-04-21T23:09:13.037Z,2.77
2019-04-21T23:11:46.991Z,2.72
2019-04-21T23:14:14.882Z,2.70
2019-04-21T23:16:45.305Z,3.20
2019-04-21T23:19:31.338Z,2.77
2019-04-21T23:21:58.139Z,2.25
2019-04-21T23:24:34.671Z,2.92
2019-04-21T23:26:54.233Z,1.98
2019-04-21T23:29:38.798Z,2.42
2019-04-21T23:31:59.333Z,2.30
2019-04-21T23:34:19.716Z,2.98
2019-04-21T23:36:53.094Z,2.17
2019-04-21T23:39:17.033Z,1.92
2019-04-21T23:41:48.865Z,1.92
2019-04-21T23:44:26.021Z,2.37
2019-04-21T23:46:57.544Z,1.72
2019-04-21T23:49:35.474Z,1.95
2019-04-21T23:52:01.346Z,2.05
2019-04-21T23:54:25.203Z,2.00
2019-04-21T23:56:53.924Z,1.70
2019-04-21T23:59:22.668Z,1.90
